Terminal Aerodrome Forecast
Issued by NWS

Home | Current Version | Previous Version | Text Only | Print | Product List | Glossary On
Versions: 1 2 3 4 5 6 7 8 9 10 11 12 13 14 15 16
000
FTUS43 KPAH 302300
TAFOWB
TAF
KOWB 302325Z 3100/3124 36003KT P6SM BKN100
     FM310400 VRB03KT P6SM -SHRA OVC060
     FM311000 30004KT P6SM BKN040
     FM311400 32012G20KT P6SM OVC025
     FM311900 33017G27KT P6SM BKN050=

USA.gov is the U.S. government's official web portal to all federal, state and local government web resources and services.